Time;durP1;ratioP1;P1;durP2;ratioP2;P2;SDS_P1;SDS_P2;PMS_P1;PMS_P2;Temp;Humidity;BMP_temperature;BMP_pressure;BME280_temperature;BME280_humidity;BME280_pressure;Samples;Min_cycle;Max_cycle;Signal;HPM_P1;HPM_P2
2021/03/25 00:00:08;;;;;;;48.70;21.00;;;0.40;99.90;;;;;;5072138;28;20458;-44
2021/03/25 00:02:34;;;;;;;52.53;23.67;;;0.40;99.90;;;;;;5071861;28;20025;-41
2021/03/25 00:04:59;;;;;;;50.60;21.13;;;0.30;99.90;;;;;;5084860;28;20026;-43
2021/03/25 00:07:25;;;;;;;51.30;21.00;;;0.30;99.90;;;;;;5112604;28;20050;-45
2021/03/25 00:09:51;;;;;;;46.03;20.25;;;0.30;99.90;;;;;;5111518;28;20056;-46
2021/03/25 00:12:16;;;;;;;48.17;19.90;;;0.30;99.90;;;;;;5112526;28;20374;-42
2021/03/25 00:14:42;;;;;;;50.53;20.52;;;0.30;99.90;;;;;;5112354;28;20024;-42
2021/03/25 00:17:07;;;;;;;44.75;18.90;;;0.30;99.90;;;;;;5112392;28;20410;-44
2021/03/25 00:19:33;;;;;;;54.15;21.30;;;0.30;99.90;;;;;;5112327;28;20421;-41
2021/03/25 00:21:58;;;;;;;51.65;21.23;;;0.20;99.90;;;;;;5112437;28;20067;-44
2021/03/25 00:24:24;;;;;;;50.03;20.38;;;0.20;99.90;;;;;;5112041;28;20110;-41
2021/03/25 00:26:49;;;;;;;53.78;21.00;;;0.20;99.90;;;;;;5132114;27;20055;-43
2021/03/25 00:29:15;;;;;;;58.65;22.67;;;0.20;99.90;;;;;;5116270;28;20386;-43
2021/03/25 00:31:43;;;;;;;51.80;21.02;;;0.20;99.90;;;;;;5115660;28;20394;-43
2021/03/25 00:34:09;;;;;;;53.65;22.00;;;0.10;99.90;;;;;;5115933;28;20043;-41
2021/03/25 00:36:35;;;;;;;60.92;22.48;;;0.20;99.90;;;;;;5115822;28;20022;-41
2021/03/25 00:39:00;;;;;;;61.40;24.38;;;0.10;99.90;;;;;;5115083;28;20482;-42
2021/03/25 00:41:26;;;;;;;65.65;24.65;;;0.20;99.90;;;;;;5131639;27;20187;-41
2021/03/25 00:43:52;;;;;;;60.50;24.05;;;0.20;99.90;;;;;;5115555;28;20046;-44
2021/03/25 00:46:18;;;;;;;54.90;22.92;;;0.10;99.90;;;;;;5115586;28;20073;-44
2021/03/25 00:48:43;;;;;;;59.20;23.63;;;0.10;99.90;;;;;;5115551;28;20031;-41
2021/03/25 00:51:09;;;;;;;51.60;23.58;;;0.20;99.90;;;;;;5115590;28;20069;-41
2021/03/25 00:53:37;;;;;;;71.47;26.38;;;0.20;99.90;;;;;;5114950;28;20016;-41
2021/03/25 00:56:05;;;;;;;60.55;22.75;;;0.20;99.90;;;;;;5115592;28;20385;-40
2021/03/25 00:58:30;;;;;;;59.55;23.92;;;0.20;99.90;;;;;;5115638;28;20109;-43
2021/03/25 01:00:59;;;;;;;46.40;19.13;;;0.20;99.90;;;;;;5115198;28;20027;-43
2021/03/25 01:03:26;;;;;;;46.28;18.83;;;0.20;99.90;;;;;;5114048;28;20028;-42
2021/03/25 01:05:53;;;;;;;58.88;23.58;;;0.20;99.90;;;;;;5115073;28;20024;-42
2021/03/25 01:08:19;;;;;;;60.63;24.55;;;0.20;99.90;;;;;;5115551;28;20054;-43
2021/03/25 01:10:48;;;;;;;46.38;18.60;;;0.20;99.90;;;;;;5114265;28;20043;-41
2021/03/25 01:13:19;;;;;;;61.00;22.33;;;0.20;99.90;;;;;;5114995;27;20026;-43
2021/03/25 01:15:45;;;;;;;51.10;20.90;;;0.20;99.90;;;;;;5114873;28;20073;-41
2021/03/25 01:18:11;;;;;;;49.08;22.05;;;0.20;99.90;;;;;;5115128;28;20482;-41
2021/03/25 01:20:40;;;;;;;55.15;23.17;;;0.20;99.90;;;;;;5115073;28;20412;-41
2021/03/25 01:23:06;;;;;;;65.57;26.13;;;0.20;99.90;;;;;;5115128;28;20053;-40
2021/03/25 01:25:33;;;;;;;51.63;22.33;;;0.20;99.90;;;;;;5113877;28;20074;-41
2021/03/25 01:28:00;;;;;;;65.97;25.33;;;0.20;99.90;;;;;;5114989;28;20131;-41
2021/03/25 01:30:29;;;;;;;51.00;21.17;;;0.20;99.90;;;;;;5114806;28;20084;-41
2021/03/25 01:32:56;;;;;;;58.10;23.73;;;0.20;99.90;;;;;;5114591;28;20054;-41
2021/03/25 01:35:21;;;;;;;51.92;20.48;;;0.20;99.90;;;;;;5114650;28;20031;-45
2021/03/25 01:37:48;;;;;;;61.88;21.88;;;0.10;99.90;;;;;;5114228;28;20031;-40
2021/03/25 01:40:14;;;;;;;61.28;24.25;;;0.10;99.90;;;;;;5113731;28;20047;-41
2021/03/25 01:42:41;;;;;;;47.83;19.17;;;0.10;99.90;;;;;;5114601;28;20112;-41
2021/03/25 01:45:28;;;;;;;59.45;21.92;;;0.10;99.90;;;;;;5114340;27;20043;-43
2021/03/25 01:47:54;;;;;;;58.25;21.42;;;0.10;99.90;;;;;;5114541;28;20024;-40
2021/03/25 01:50:21;;;;;;;53.13;22.17;;;0.10;99.90;;;;;;5114322;28;20069;-43
2021/03/25 01:53:01;;;;;;;53.67;21.92;;;0.00;99.90;;;;;;5114345;28;20029;-41
2021/03/25 01:55:49;;;;;;;60.00;21.98;;;0.10;99.90;;;;;;5113381;28;20481;-41
2021/03/25 01:58:33;;;;;;;45.15;18.05;;;0.10;99.90;;;;;;5114447;28;20097;-41
2021/03/25 02:01:04;;;;;;;62.47;22.52;;;0.10;99.90;;;;;;5114039;28;20044;-40
2021/03/25 02:03:51;;;;;;;66.47;24.65;;;0.00;99.90;;;;;;5114207;28;20024;-43
2021/03/25 02:06:37;;;;;;;65.20;23.33;;;0.10;99.90;;;;;;5113942;28;20032;-40
2021/03/25 02:09:27;;;;;;;53.70;23.15;;;0.00;99.90;;;;;;5113142;28;20428;-42
2021/03/25 02:12:17;;;;;;;53.80;21.73;;;0.00;99.90;;;;;;5113756;28;20032;-40
2021/03/25 02:14:54;;;;;;;66.13;24.17;;;0.00;99.90;;;;;;5114072;28;20020;-41
2021/03/25 02:17:27;;;;;;;55.95;21.90;;;0.00;99.90;;;;;;5113961;28;20568;-44
2021/03/25 02:20:12;;;;;;;57.38;23.80;;;0.00;99.90;;;;;;5113813;28;20038;-44
2021/03/25 02:22:59;;;;;;;66.68;25.00;;;0.00;99.90;;;;;;5113695;28;20015;-42
2021/03/25 02:25:34;;;;;;;57.70;22.33;;;-0.10;99.90;;;;;;5112859;28;20028;-43
2021/03/25 02:28:11;;;;;;;41.90;17.73;;;-0.10;99.90;;;;;;5113831;28;20032;-42
2021/03/25 02:30:43;;;;;;;63.88;24.63;;;-0.10;99.90;;;;;;5113629;28;20028;-43
2021/03/25 02:33:14;;;;;;;69.18;25.02;;;-0.10;99.90;;;;;;5113650;28;20082;-40
2021/03/25 02:35:50;;;;;;;58.53;23.27;;;-0.10;99.90;;;;;;5113486;28;20061;-43
2021/03/25 02:38:23;;;;;;;;;;;-0.10;99.90;;;;;;5114217;28;20047;-41
2021/03/25 02:40:53;;;;;;;61.53;21.75;;;-0.10;99.90;;;;;;5112494;28;19911;-43
2021/03/25 02:43:47;;;;;;;60.22;23.13;;;-0.10;99.90;;;;;;5113387;28;20028;-43
2021/03/25 02:46:24;;;;;;;61.78;22.20;;;-0.10;99.90;;;;;;5113405;28;20566;-41
2021/03/25 02:48:53;;;;;;;50.00;19.80;;;-0.10;99.90;;;;;;5112508;28;20023;-41
2021/03/25 02:51:27;;;;;;;61.53;24.10;;;-0.10;99.90;;;;;;5113091;27;20486;-40
2021/03/25 02:53:54;;;;;;;57.00;23.40;;;-0.20;99.90;;;;;;5112261;28;20024;-41
2021/03/25 02:56:43;;;;;;;62.25;23.77;;;-0.20;99.90;;;;;;5113329;28;20038;-45
2021/03/25 02:59:19;;;;;;;61.50;22.92;;;-0.20;99.90;;;;;;5113315;28;20061;-40
2021/03/25 03:01:50;;;;;;;60.30;23.70;;;-0.20;99.90;;;;;;5113245;28;20367;-42
2021/03/25 03:04:27;;;;;;;67.93;25.10;;;-0.20;99.90;;;;;;5113126;28;20591;-41
2021/03/25 03:07:26;;;;;;;58.70;21.65;;;-0.20;99.90;;;;;;5112887;28;20035;-43
2021/03/25 03:09:58;;;;;;;60.40;21.95;;;-0.10;99.90;;;;;;5112237;28;20042;-42
2021/03/25 03:12:35;;;;;;;74.32;25.55;;;-0.10;99.90;;;;;;5112827;28;20031;-41
2021/03/25 03:15:10;;;;;;;76.47;27.25;;;-0.20;99.90;;;;;;5113070;28;20016;-40
2021/03/25 03:17:39;;;;;;;75.05;26.23;;;-0.20;99.90;;;;;;5113066;28;20370;-41
2021/03/25 03:20:14;;;;;;;64.40;23.25;;;-0.20;99.90;;;;;;5128869;28;20028;-40
2021/03/25 03:22:41;;;;;;;58.90;21.17;;;-0.20;99.90;;;;;;5111516;28;20030;-42
2021/03/25 03:25:12;;;;;;;60.40;21.63;;;-0.30;99.90;;;;;;5111910;28;20039;-41
2021/03/25 03:27:48;;;;;;;67.75;24.55;;;-0.30;99.90;;;;;;5112947;28;20077;-40
2021/03/25 03:30:18;;;;;;;;;;;-0.30;99.90;;;;;;5113364;28;20097;-41
2021/03/25 03:32:57;;;;;;;54.55;19.42;;;-0.30;99.90;;;;;;5112797;28;19930;-40
2021/03/25 03:35:30;;;;;;;60.00;20.88;;;-0.30;99.90;;;;;;5111563;28;20023;-43
2021/03/25 03:38:04;;;;;;;53.17;20.83;;;-0.30;99.90;;;;;;5112602;28;20028;-40
2021/03/25 03:40:40;;;;;;;55.65;19.95;;;-0.40;99.90;;;;;;5112047;28;20605;-43
2021/03/25 03:43:12;;;;;;;42.97;16.02;;;-0.40;99.90;;;;;;5112663;28;20112;-42
2021/03/25 03:45:42;;;;;;;74.78;26.90;;;-0.40;99.90;;;;;;5112709;28;20043;-40
2021/03/25 03:48:16;;;;;;;65.68;24.13;;;-0.40;99.90;;;;;;5112541;28;20023;-41
2021/03/25 03:50:48;;;;;;;66.03;23.90;;;-0.40;99.90;;;;;;5112766;28;20482;-41
2021/03/25 03:53:15;;;;;;;76.63;27.00;;;-0.40;99.90;;;;;;5128262;28;20019;-43
2021/03/25 03:55:40;;;;;;;66.13;24.65;;;-0.40;99.90;;;;;;5111870;28;20035;-41
2021/03/25 03:58:34;;;;;;;69.50;23.25;;;-0.40;99.90;;;;;;5112533;28;20397;-40
2021/03/25 04:01:25;;;;;;;50.60;19.23;;;-0.40;99.90;;;;;;5115681;28;20027;-43
2021/03/25 04:03:59;;;;;;;61.50;22.98;;;-0.50;99.90;;;;;;5116611;28;20032;-41
2021/03/25 04:06:55;;;;;;;64.78;22.55;;;-0.40;99.90;;;;;;5116359;28;20019;-41
2021/03/25 04:09:39;;;;;;;58.53;19.40;;;-0.50;99.90;;;;;;5114700;28;20036;-45
2021/03/25 04:12:10;;;;;;;52.75;20.70;;;-0.50;99.90;;;;;;5099430;27;20126;-40
2021/03/25 04:14:44;;;;;;;66.45;22.73;;;-0.60;99.90;;;;;;5096107;28;20028;-40
2021/03/25 04:17:16;;;;;;;63.78;23.38;;;-0.60;99.90;;;;;;5095635;28;20035;-40
2021/03/25 04:19:46;;;;;;;64.43;23.48;;;-0.60;99.90;;;;;;5096041;28;20080;-43
2021/03/25 04:22:17;;;;;;;60.90;21.45;;;-0.60;99.90;;;;;;5095593;28;20443;-41
2021/03/25 04:24:53;;;;;;;67.80;23.90;;;-0.70;99.90;;;;;;5094940;28;20028;-41
2021/03/25 04:27:23;;;;;;;60.00;22.83;;;-0.60;99.90;;;;;;5095736;28;20474;-41
2021/03/25 04:30:04;;;;;;;43.60;17.17;;;-0.60;99.90;;;;;;5095703;28;20024;-40
2021/03/25 04:32:30;;;;;;;66.93;23.15;;;-0.70;99.90;;;;;;5095558;28;20048;-41
2021/03/25 04:34:56;;;;;;;62.72;22.00;;;-0.70;99.90;;;;;;5095602;28;20066;-42
2021/03/25 04:37:24;;;;;;;73.93;23.85;;;-0.70;99.90;;;;;;5095459;28;20112;-43
2021/03/25 04:39:50;;;;;;;63.40;21.00;;;-0.70;99.90;;;;;;5094654;28;20035;-41
2021/03/25 04:42:16;;;;;;;62.30;24.05;;;-0.70;99.90;;;;;;5095189;28;20020;-43
2021/03/25 04:44:50;;;;;;;71.22;26.38;;;-0.70;99.90;;;;;;5095309;28;20048;-41
2021/03/25 04:47:23;;;;;;;67.90;23.55;;;-0.70;99.90;;;;;;5095258;28;20567;-41
2021/03/25 04:50:06;;;;;;;63.15;22.65;;;-0.70;99.90;;;;;;5095476;28;20055;-40
2021/03/25 04:52:33;;;;;;;70.63;26.27;;;-0.70;99.90;;;;;;5094904;28;20039;-42
2021/03/25 04:55:32;;;;;;;64.05;25.27;;;-0.70;99.90;;;;;;5094158;28;20020;-41
2021/03/25 04:58:02;;;;;;;63.60;24.58;;;-0.70;99.90;;;;;;5083383;28;20064;-40
2021/03/25 05:00:36;;;;;;;67.57;24.83;;;-0.60;99.90;;;;;;5095236;28;20356;-40
2021/03/25 05:03:03;;;;;;;68.95;23.88;;;-0.60;99.90;;;;;;5094796;28;20073;-40
2021/03/25 05:05:31;;;;;;;68.80;25.98;;;-0.60;99.90;;;;;;5105638;28;20420;-43
2021/03/25 05:08:00;;;;;;;73.80;28.05;;;-0.50;99.90;;;;;;5115213;28;20530;-40
2021/03/25 05:10:41;;;;;;;72.72;24.67;;;-0.50;99.90;;;;;;5100702;28;20020;-40
2021/03/25 05:13:19;;;;;;;59.67;23.20;;;-0.40;99.90;;;;;;5093909;28;20032;-40
2021/03/25 05:15:45;;;;;;;72.97;25.15;;;-0.40;99.90;;;;;;5094527;28;20024;-42
2021/03/25 05:18:23;;;;;;;66.80;24.88;;;-0.30;99.90;;;;;;5094510;28;20031;-40
2021/03/25 05:21:01;;;;;;;69.05;24.60;;;-0.30;99.90;;;;;;5094614;28;20035;-40
2021/03/25 05:24:09;;;;;;;72.18;27.00;;;-0.20;99.90;;;;;;5093693;28;20036;-41
2021/03/25 05:26:43;;;;;;;70.82;26.42;;;-0.10;99.90;;;;;;5094505;28;20054;-40
2021/03/25 05:29:11;;;;;;;64.38;24.95;;;0.00;99.90;;;;;;5094359;28;20104;-40
2021/03/25 05:31:41;;;;;;;61.15;21.77;;;0.20;99.90;;;;;;5094365;28;20482;-41
2021/03/25 05:34:08;;;;;;;56.47;22.58;;;0.20;99.90;;;;;;5094123;28;20021;-40
2021/03/25 05:36:34;;;;;;;62.55;25.02;;;0.30;99.90;;;;;;5094152;28;20479;-42
2021/03/25 05:39:00;;;;;;;66.05;24.75;;;0.50;99.90;;;;;;5093240;28;20374;-41
2021/03/25 05:41:40;;;;;;;56.47;22.58;;;0.60;99.90;;;;;;5094071;28;20018;-40
2021/03/25 05:44:33;;;;;;;54.58;21.08;;;0.70;99.90;;;;;;5093862;28;20044;-40
2021/03/25 05:47:36;;;;;;;52.83;21.88;;;0.80;99.90;;;;;;5093859;28;20020;-40
2021/03/25 05:50:20;;;;;;;50.90;22.17;;;1.00;99.90;;;;;;5092724;28;20024;-41
2021/03/25 05:53:28;;;;;;;57.17;22.08;;;1.20;99.90;;;;;;5073739;28;20016;-40
2021/03/25 05:56:22;;;;;;;67.25;23.45;;;1.50;99.90;;;;;;5073444;28;20032;-42
2021/03/25 05:59:00;;;;;;;59.03;22.83;;;1.70;99.90;;;;;;5073584;28;20017;-42
2021/03/25 06:01:34;;;;;;;47.78;22.08;;;1.90;99.90;;;;;;5073201;28;20028;-41
2021/03/25 06:04:05;;;;;;;50.90;21.90;;;2.20;99.90;;;;;;5073434;28;20016;-44
2021/03/25 06:07:00;;;;;;;60.42;23.63;;;2.30;99.90;;;;;;5112023;28;20343;-42
2021/03/25 06:09:47;;;;;;;56.90;22.83;;;2.60;99.90;;;;;;5112603;27;20027;-41
2021/03/25 06:12:46;;;;;;;51.63;20.83;;;3.10;99.90;;;;;;5103767;28;20052;-42
2021/03/25 06:15:40;;;;;;;43.28;20.27;;;3.70;99.90;;;;;;5093082;28;20046;-43
2021/03/25 06:18:36;;;;;;;46.83;20.45;;;4.30;99.90;;;;;;5093243;28;20485;-43
2021/03/25 06:21:13;;;;;;;42.83;18.30;;;4.90;99.90;;;;;;5093371;28;20069;-43
2021/03/25 06:23:57;;;;;;;44.70;20.52;;;5.40;99.90;;;;;;5092159;28;20032;-41
2021/03/25 06:26:29;;;;;;;38.33;18.15;;;5.80;99.90;;;;;;5092873;28;20032;-42
2021/03/25 06:29:02;;;;;;;36.20;17.50;;;6.30;99.90;;;;;;5093412;28;20031;-41
2021/03/25 06:31:45;;;;;;;39.78;19.77;;;6.70;99.90;;;;;;5092946;28;20039;-41
2021/03/25 06:34:22;;;;;;;37.65;18.65;;;7.20;99.90;;;;;;5092995;28;20025;-41
2021/03/25 06:37:02;;;;;;;42.13;21.25;;;7.70;99.90;;;;;;5093104;28;20031;-41
2021/03/25 06:39:39;;;;;;;43.25;23.23;;;8.20;99.90;;;;;;5091675;28;20084;-43
2021/03/25 06:42:22;;;;;;;34.97;19.20;;;8.80;97.50;;;;;;5092814;28;20034;-41
2021/03/25 06:44:59;;;;;;;42.65;21.83;;;9.30;93.50;;;;;;5093034;28;20113;-41
2021/03/25 06:47:37;;;;;;;40.70;20.40;;;9.80;95.10;;;;;;5092600;28;20107;-41
2021/03/25 06:50:04;;;;;;;35.95;19.80;;;10.30;93.90;;;;;;5092945;28;20028;-44
2021/03/25 06:52:32;;;;;;;33.22;18.60;;;10.70;92.80;;;;;;5112324;28;20130;-41
2021/03/25 06:55:18;;;;;;;31.15;18.35;;;11.10;92.30;;;;;;5112025;28;20028;-41
2021/03/25 06:57:52;;;;;;;37.42;21.50;;;11.60;89.50;;;;;;5128736;27;20019;-41
2021/03/25 07:00:21;;;;;;;36.30;21.05;;;11.90;91.20;;;;;;5111034;28;20027;-43
2021/03/25 07:02:47;;;;;;;39.63;21.63;;;12.20;90.20;;;;;;5113212;28;20068;-41
2021/03/25 07:05:20;;;;;;;39.10;21.15;;;12.50;89.80;;;;;;5112937;28;20399;-41
2021/03/25 07:07:52;;;;;;;37.25;22.00;;;12.90;87.30;;;;;;5113112;28;20550;-41
2021/03/25 07:10:18;;;;;;;42.80;24.05;;;13.20;87.60;;;;;;5111385;28;20024;-41
2021/03/25 07:12:47;;;;;;;34.58;20.52;;;13.60;85.50;;;;;;5112786;28;20360;-41
2021/03/25 07:15:25;;;;;;;46.30;25.98;;;14.00;84.00;;;;;;5112911;28;20028;-44
2021/03/25 07:17:51;;;;;;;34.15;19.25;;;14.40;83.70;;;;;;5111703;28;20011;-41
2021/03/25 07:20:30;;;;;;;41.03;23.77;;;14.80;82.30;;;;;;5112803;28;20386;-44
2021/03/25 07:22:59;;;;;;;38.17;23.67;;;15.30;81.00;;;;;;5112518;28;20501;-42
2021/03/25 07:25:25;;;;;;;40.22;25.00;;;15.80;79.80;;;;;;5111377;28;20024;-43
2021/03/25 07:27:52;;;;;;;42.33;23.40;;;16.10;78.30;;;;;;5112666;28;20023;-42
2021/03/25 07:30:20;;;;;;;40.08;23.95;;;16.50;77.30;;;;;;5112670;28;20024;-42
2021/03/25 07:32:48;;;;;;;42.03;24.17;;;17.00;76.20;;;;;;5112758;28;20034;-42
2021/03/25 07:35:25;;;;;;;37.67;24.33;;;17.30;75.70;;;;;;5114487;28;20099;-42
2021/03/25 07:37:52;;;;;;;37.42;23.40;;;17.70;70.10;;;;;;5117053;28;20023;-44
2021/03/25 07:40:31;;;;;;;36.45;24.00;;;18.10;73.30;;;;;;5115527;28;20020;-42
2021/03/25 07:43:22;;;;;;;36.50;22.90;;;18.50;68.20;;;;;;5116765;28;20038;-44
2021/03/25 07:45:48;;;;;;;31.70;21.00;;;18.70;66.40;;;;;;5116873;28;20059;-42
2021/03/25 07:48:25;;;;;;;39.78;23.83;;;19.00;70.20;;;;;;5116643;28;20127;-43
2021/03/25 07:51:08;;;;;;;34.38;23.25;;;19.20;67.50;;;;;;5116712;28;20023;-44
2021/03/25 07:53:35;;;;;;;33.38;22.13;;;19.30;69.10;;;;;;5115238;28;20023;-42
2021/03/25 07:56:17;;;;;;;32.15;21.75;;;19.40;68.90;;;;;;5116661;28;20100;-44
2021/03/25 07:58:45;;;;;;;34.00;22.77;;;19.60;64.10;;;;;;5116407;28;20420;-42
2021/03/25 08:01:23;;;;;;;30.77;20.55;;;19.80;67.60;;;;;;5132455;27;20023;-43
2021/03/25 08:03:57;;;;;;;33.65;22.98;;;20.00;63.40;;;;;;5116568;28;20066;-42
2021/03/25 08:06:31;;;;;;;33.97;23.50;;;20.20;65.00;;;;;;5116207;28;20416;-45
2021/03/25 08:09:10;;;;;;;35.67;25.30;;;20.30;63.70;;;;;;5115003;28;20054;-42
2021/03/25 08:11:52;;;;;;;32.80;22.27;;;20.50;61.40;;;;;;5115997;28;20059;-45
2021/03/25 08:14:22;;;;;;;37.38;23.92;;;20.70;61.70;;;;;;5115992;28;20015;-43
2021/03/25 08:16:51;;;;;;;34.10;23.48;;;20.80;63.30;;;;;;5116086;28;20374;-44
2021/03/25 08:19:32;;;;;;;32.33;22.73;;;20.90;62.70;;;;;;5116096;27;20052;-43
2021/03/25 08:22:15;;;;;;;36.45;25.20;;;21.10;58.90;;;;;;5116129;28;20421;-43
2021/03/25 08:25:00;;;;;;;32.42;20.95;;;21.30;58.60;;;;;;5114684;28;20016;-42
2021/03/25 08:27:58;;;;;;;31.25;21.90;;;21.30;57.70;;;;;;5115706;28;20479;-43
2021/03/25 08:30:42;;;;;;;34.40;21.98;;;21.40;58.40;;;;;;5115921;28;20475;-42
2021/03/25 08:33:35;;;;;;;34.97;23.27;;;21.60;57.60;;;;;;5115887;28;20024;-43
2021/03/25 08:36:23;;;;;;;36.67;23.35;;;21.90;54.60;;;;;;5116081;28;20016;-42
2021/03/25 08:39:11;;;;;;;28.45;21.10;;;22.10;57.00;;;;;;5114646;28;20462;-42
2021/03/25 08:41:46;;;;;;;30.52;20.52;;;22.20;56.20;;;;;;5115686;28;20031;-42
2021/03/25 08:44:28;;;;;;;32.58;20.95;;;22.20;57.30;;;;;;5113868;28;20079;-45
2021/03/25 08:47:02;;;;;;;34.53;22.45;;;22.30;54.90;;;;;;5114186;28;20027;-42
2021/03/25 08:49:37;;;;;;;28.75;21.15;;;22.40;57.00;;;;;;5115476;27;20102;-42
2021/03/25 08:52:06;;;;;;;34.50;24.25;;;22.50;56.20;;;;;;5115453;28;20066;-43
2021/03/25 08:54:42;;;;;;;33.08;22.13;;;22.70;56.10;;;;;;5111945;28;20415;-42
2021/03/25 08:57:22;;;;;;;35.83;23.33;;;22.70;55.40;;;;;;5115567;28;20192;-42
2021/03/25 09:00:09;;;;;;;35.38;24.42;;;22.90;54.60;;;;;;5115311;28;20036;-42
2021/03/25 09:02:50;;;;;;;40.22;24.42;;;23.10;52.70;;;;;;5131136;27;20027;-42
2021/03/25 09:05:15;;;;;;;31.98;22.25;;;23.30;53.40;;;;;;5115069;28;20063;-43
2021/03/25 09:07:42;;;;;;;37.05;23.08;;;23.30;53.60;;;;;;5115277;28;20066;-43
2021/03/25 09:10:17;;;;;;;29.23;20.25;;;23.30;53.00;;;;;;5113951;27;20019;-42
2021/03/25 09:12:43;;;;;;;;;;;23.40;52.30;;;;;;5115354;28;20347;-42
2021/03/25 09:15:09;;;;;;;28.13;18.93;;;23.30;47.00;;;;;;5115015;28;19904;-42
2021/03/25 09:17:46;;;;;;;33.72;22.50;;;23.30;53.20;;;;;;5114854;28;20073;-42
2021/03/25 09:20:23;;;;;;;33.60;23.48;;;23.20;53.30;;;;;;5115041;28;20032;-42
2021/03/25 09:23:00;;;;;;;33.70;23.77;;;23.20;52.20;;;;;;5114951;27;20032;-43
2021/03/25 09:25:26;;;;;;;29.52;20.08;;;23.30;51.10;;;;;;5113446;28;20051;-43
2021/03/25 09:28:06;;;;;;;37.28;22.80;;;23.40;51.40;;;;;;5114914;28;20078;-43
2021/03/25 09:30:50;;;;;;;33.15;22.58;;;23.40;50.00;;;;;;5114482;28;20416;-43
2021/03/25 09:33:55;;;;;;;35.40;24.30;;;23.40;50.90;;;;;;5114628;28;20062;-46
2021/03/25 09:36:21;;;;;;;34.83;22.65;;;23.40;49.00;;;;;;5051443;28;20021;-43
2021/03/25 09:38:58;;;;;;;35.90;24.38;;;23.30;51.20;;;;;;5102067;27;20097;-43
2021/03/25 09:41:30;;;;;;;37.22;24.90;;;23.30;48.90;;;;;;5114404;28;20137;-43
2021/03/25 09:44:19;;;;;;;41.83;24.63;;;23.30;49.70;;;;;;5114805;28;20035;-43
2021/03/25 09:46:47;;;;;;;31.98;21.35;;;23.40;47.60;;;;;;5114274;28;20540;-51
2021/03/25 09:49:41;;;;;;;38.10;25.75;;;23.30;49.60;;;;;;5108455;28;20195;-44
2021/03/25 09:52:06;;;;;;;34.80;24.55;;;23.10;47.90;;;;;;5088992;28;20688;-44
2021/03/25 09:54:42;;;;;;;32.08;21.40;;;23.00;49.60;;;;;;5087229;28;20027;-43
2021/03/25 09:57:24;;;;;;;36.67;24.17;;;22.90;49.50;;;;;;5091873;28;20024;-46
2021/03/25 09:59:57;;;;;;;28.48;19.95;;;22.90;49.40;;;;;;5093228;28;20027;-46
2021/03/25 10:02:37;;;;;;;33.42;22.73;;;22.70;49.50;;;;;;5093172;28;20039;-44
2021/03/25 10:05:22;;;;;;;37.25;24.40;;;22.60;48.80;;;;;;5093535;28;20020;-46
2021/03/25 10:07:52;;;;;;;37.25;24.25;;;22.60;48.10;;;;;;5093007;28;20089;-47
2021/03/25 10:10:33;;;;;;;37.20;23.73;;;22.50;49.80;;;;;;5092480;28;20020;-44
2021/03/25 10:13:01;;;;;;;41.00;24.40;;;22.40;49.70;;;;;;5093227;28;20592;-41
2021/03/25 10:15:42;;;;;;;35.25;22.40;;;22.30;49.50;;;;;;5093066;28;20047;-42
2021/03/25 10:18:16;;;;;;;41.17;26.08;;;22.20;49.40;;;;;;5092901;28;20024;-42
2021/03/25 10:21:06;;;;;;;38.22;23.98;;;21.90;49.80;;;;;;5093280;28;20034;-42
2021/03/25 10:23:36;;;;;;;41.90;23.92;;;21.70;50.30;;;;;;5091931;28;20051;-41
2021/03/25 10:26:02;;;;;;;41.75;25.25;;;21.30;50.70;;;;;;5092395;28;20394;-46
2021/03/25 10:28:32;;;;;;;50.67;28.58;;;20.90;51.10;;;;;;5092753;28;20077;-43
2021/03/25 10:31:06;;;;;;;46.92;26.08;;;20.60;51.50;;;;;;5093018;28;20066;-42
2021/03/25 10:33:34;;;;;;;44.88;26.88;;;20.30;51.90;;;;;;5092717;28;20035;-42
2021/03/25 10:36:10;;;;;;;47.45;28.00;;;20.10;52.40;;;;;;5092799;28;20024;-42
2021/03/25 10:39:01;;;;;;;38.78;24.60;;;19.80;52.60;;;;;;5091725;28;20020;-42
2021/03/25 10:41:33;;;;;;;35.60;22.25;;;19.60;53.00;;;;;;5092860;28;20031;-42
2021/03/25 10:44:15;;;;;;;53.70;29.52;;;19.40;53.40;;;;;;5092591;28;20051;-43
2021/03/25 10:46:40;;;;;;;45.03;27.73;;;19.20;53.50;;;;;;5092315;28;20059;-43
2021/03/25 10:49:29;;;;;;;41.70;26.08;;;19.00;53.70;;;;;;5092705;28;20060;-42
2021/03/25 10:51:55;;;;;;;51.85;30.35;;;18.90;54.10;;;;;;5107174;28;20036;-44
2021/03/25 10:54:36;;;;;;;49.22;29.15;;;18.70;54.30;;;;;;5111955;28;20042;-44
2021/03/25 10:57:13;;;;;;;45.20;27.17;;;18.60;54.40;;;;;;5100569;28;20028;-44
2021/03/25 10:59:47;;;;;;;38.65;24.02;;;18.50;54.70;;;;;;5092276;28;20035;-45
2021/03/25 11:02:23;;;;;;;50.10;27.80;;;18.40;54.60;;;;;;5092229;28;20031;-45
2021/03/25 11:05:02;;;;;;;48.22;26.00;;;18.20;54.80;;;;;;5097209;28;20104;-42
2021/03/25 11:07:29;;;;;;;46.75;27.30;;;18.10;55.10;;;;;;5112747;28;20024;-45
2021/03/25 11:09:57;;;;;;;43.40;25.17;;;18.10;55.10;;;;;;5110866;28;20034;-44
2021/03/25 11:12:30;;;;;;;45.83;26.67;;;18.00;55.10;;;;;;5112527;28;20055;-44
2021/03/25 11:14:59;;;;;;;44.10;24.63;;;18.00;55.20;;;;;;5112574;28;20031;-42
2021/03/25 11:17:31;;;;;;;44.30;26.05;;;18.00;55.20;;;;;;5112576;28;20027;-44
2021/03/25 11:20:04;;;;;;;48.13;28.33;;;17.90;55.20;;;;;;5112348;28;20022;-42
2021/03/25 11:22:31;;;;;;;53.33;28.25;;;18.00;55.40;;;;;;5112471;28;20466;-44
2021/03/25 11:25:09;;;;;;;38.75;23.65;;;17.80;55.30;;;;;;5111252;28;20043;-42
2021/03/25 11:27:37;;;;;;;42.47;24.45;;;17.80;55.80;;;;;;5112451;28;20023;-44
2021/03/25 11:30:31;;;;;;;44.47;25.92;;;17.90;55.70;;;;;;5112478;28;20073;-42
2021/03/25 11:32:57;;;;;;;38.88;23.90;;;17.90;55.40;;;;;;5112188;28;20019;-45
2021/03/25 11:35:34;;;;;;;39.10;23.55;;;18.00;55.10;;;;;;5112230;28;20485;-45
2021/03/25 11:38:30;;;;;;;34.70;21.27;;;18.20;54.90;;;;;;5112313;28;20745;-44
2021/03/25 11:41:03;;;;;;;45.10;25.45;;;18.30;54.80;;;;;;5112414;28;20730;-45
2021/03/25 11:43:41;;;;;;;43.63;23.70;;;18.40;54.80;;;;;;5112012;28;20028;-44
2021/03/25 11:46:07;;;;;;;36.70;22.23;;;18.30;54.80;;;;;;5112157;28;20050;-43
2021/03/25 11:48:36;;;;;;;48.17;25.35;;;18.20;55.00;;;;;;5112196;28;20019;-45
2021/03/25 11:51:17;;;;;;;52.78;30.80;;;18.10;55.10;;;;;;5112275;28;20103;-46
2021/03/25 11:53:54;;;;;;;46.28;26.08;;;17.90;55.00;;;;;;5084684;28;20115;-43
2021/03/25 11:56:25;;;;;;;46.00;25.08;;;17.80;55.50;;;;;;5084033;28;20040;-45
2021/03/25 11:59:01;;;;;;;39.20;23.55;;;17.70;55.70;;;;;;5089971;28;20024;-46
2021/03/25 12:01:29;;;;;;;;;;;17.70;55.90;;;;;;5083620;28;20021;-43
2021/03/25 12:04:02;;;;;;;41.33;21.88;;;17.50;55.30;;;;;;5089707;28;19912;-43
2021/03/25 12:06:37;;;;;;;43.85;22.92;;;17.40;55.70;;;;;;5089589;28;20494;-44
2021/03/25 12:09:18;;;;;;;37.60;21.63;;;17.30;55.70;;;;;;5089381;28;20055;-43
2021/03/25 12:11:49;;;;;;;35.63;21.48;;;17.40;55.00;;;;;;5088032;28;20040;-45
2021/03/25 12:14:17;;;;;;;36.25;19.45;;;17.40;55.10;;;;;;5089890;28;20031;-47
2021/03/25 12:16:42;;;;;;;36.38;20.98;;;17.40;54.90;;;;;;5089776;28;20477;-44
2021/03/25 12:19:09;;;;;;;31.98;18.45;;;17.40;54.80;;;;;;5090023;28;20030;-44
2021/03/25 12:21:36;;;;;;;37.97;19.83;;;17.40;54.70;;;;;;5092144;28;20028;-44
2021/03/25 12:24:03;;;;;;;32.92;19.27;;;17.30;54.80;;;;;;5092632;28;20028;-45
2021/03/25 12:26:29;;;;;;;30.98;16.90;;;17.30;54.70;;;;;;5093619;28;20035;-45
2021/03/25 12:28:56;;;;;;;39.80;20.27;;;17.20;54.60;;;;;;5093526;28;20541;-47
2021/03/25 12:31:24;;;;;;;34.20;18.38;;;17.20;54.60;;;;;;5093638;28;20036;-44
2021/03/25 12:33:52;;;;;;;40.30;20.83;;;17.10;54.40;;;;;;5093230;28;20036;-43
2021/03/25 12:36:18;;;;;;;38.85;22.48;;;17.20;54.40;;;;;;5095200;28;20024;-44
2021/03/25 12:38:44;;;;;;;32.60;20.23;;;17.30;53.90;;;;;;5093911;28;20028;-44
2021/03/25 12:41:27;;;;;;;36.33;19.75;;;17.50;53.70;;;;;;5095139;28;20017;-45
2021/03/25 12:43:52;;;;;;;30.13;16.50;;;17.70;53.30;;;;;;5094588;28;20118;-44
2021/03/25 12:46:18;;;;;;;28.75;17.02;;;17.90;53.20;;;;;;5094731;28;20487;-45
2021/03/25 12:48:43;;;;;;;31.73;18.60;;;18.00;53.10;;;;;;5094703;28;20463;-44
2021/03/25 12:51:13;;;;;;;41.63;21.95;;;18.00;53.00;;;;;;5103143;28;20070;-44
2021/03/25 12:53:40;;;;;;;35.55;20.77;;;18.00;53.00;;;;;;5114269;27;20020;-45
2021/03/25 12:56:06;;;;;;;35.50;19.70;;;17.90;53.00;;;;;;5114898;28;20031;-44
2021/03/25 12:58:37;;;;;;;42.92;20.60;;;17.70;53.20;;;;;;5114679;28;20028;-45
2021/03/25 13:01:12;;;;;;;31.98;18.13;;;17.70;53.30;;;;;;5114960;28;20015;-44
2021/03/25 13:03:39;;;;;;;34.22;18.95;;;17.60;53.20;;;;;;5114861;28;20035;-44
2021/03/25 13:06:06;;;;;;;33.58;18.98;;;17.70;53.10;;;;;;5114650;28;20081;-44